Time;durP1;ratioP1;P1;durP2;ratioP2;P2;SDS_P1;SDS_P2;PMS_P1;PMS_P2;Temp;Humidity;BMP_temperature;BMP_pressure;BME280_temperature;BME280_humidity;BME280_pressure;Samples;Min_cycle;Max_cycle;Signal;HPM_P1;HPM_P2
2022/06/05 00:00:29;;;;;;;6.45;3.17;;;;;;;-145.69;96.15;70729.88;5055931;28;20222;-81
2022/06/05 00:03:19;;;;;;;5.38;2.90;;;;;;;-145.69;96.75;70741.81;5063252;28;20191;-82
2022/06/05 00:05:54;;;;;;;5.80;3.30;;;;;;;-145.69;97.79;70743.81;5075667;28;20209;-81
2022/06/05 00:08:30;;;;;;;5.05;3.25;;;;;;;-145.69;98.31;70745.78;5075787;28;20198;-82
2022/06/05 00:10:59;;;;;;;6.15;3.70;;;;;;;-145.69;99.56;70745.78;5074747;28;20233;-83
2022/06/05 00:13:33;;;;;;;5.38;3.13;;;;;;;-145.69;99.81;70735.84;5075839;28;20202;-81
2022/06/05 00:16:01;;;;;;;7.40;3.85;;;;;;;-145.69;100.00;70727.88;5075381;28;20223;-82
2022/06/05 00:18:33;;;;;;;6.78;4.20;;;;;;;-145.69;100.00;70711.97;5075628;28;20206;-81
2022/06/05 00:20:59;;;;;;;7.13;4.03;;;;;;;-145.69;100.00;70709.97;5075735;28;20218;-83
2022/06/05 00:23:26;;;;;;;8.43;4.20;;;;;;;-145.69;100.00;70708.00;5075247;28;20199;-83
2022/06/05 00:25:56;;;;;;;5.95;3.92;;;;;;;-145.69;100.00;70698.03;5075734;28;20225;-80
2022/06/05 00:28:34;;;;;;;7.55;4.10;;;;;;;-145.69;100.00;70692.06;5075305;28;20234;-82
2022/06/05 00:31:09;;;;;;;7.32;4.07;;;;;;;-145.69;100.00;70688.09;5074960;28;20949;-80
2022/06/05 00:33:38;;;;;;;5.43;3.90;;;;;;;-145.69;100.00;70686.09;5075071;28;20213;-81
2022/06/05 00:36:17;;;;;;;7.65;3.53;;;;;;;-145.69;100.00;70686.09;5075438;28;20195;-82
2022/06/05 00:38:53;;;;;;;7.55;3.88;;;;;;;-145.69;100.00;70690.09;5075540;28;20206;-81
2022/06/05 00:41:39;;;;;;;6.13;4.25;;;;;;;-145.69;100.00;70690.09;5075300;28;20198;-81
2022/06/05 00:44:07;;;;;;;6.07;3.80;;;;;;;-145.69;100.00;70682.13;5074905;28;20202;-82
2022/06/05 00:46:38;;;;;;;5.55;3.80;;;;;;;-145.69;100.00;70676.16;5073949;28;20206;-81
2022/06/05 00:49:07;;;;;;;6.75;4.28;;;;;;;-145.69;100.00;70666.22;5075539;28;20256;-82
2022/06/05 00:51:34;;;;;;;5.63;4.43;;;;;;;-145.69;100.00;70678.16;5074868;28;20207;-80
2022/06/05 00:54:00;;;;;;;7.68;4.45;;;;;;;-145.69;100.00;70698.03;5075028;28;20199;-81
2022/06/05 00:56:27;;;;;;;9.95;5.20;;;;;;;-145.69;100.00;70715.94;5075012;28;20206;-81
2022/06/05 00:58:53;;;;;;;8.63;5.68;;;;;;;-145.69;100.00;70719.94;5074685;28;20203;-81
2022/06/05 01:01:20;;;;;;;6.88;5.00;;;;;;;-145.69;100.00;70729.88;5074730;28;20221;-80
2022/06/05 01:03:48;;;;;;;8.60;5.22;;;;;;;-145.69;100.00;70721.91;5074653;28;20211;-82
2022/06/05 01:06:15;;;;;;;9.37;5.87;;;;;;;-145.69;100.00;70706.00;5074401;28;20438;-82
2022/06/05 01:08:42;;;;;;;8.50;5.38;;;;;;;-145.69;100.00;70709.97;5074675;28;20569;-81
2022/06/05 01:11:18;;;;;;;10.82;5.35;;;;;;;-145.69;100.00;70721.91;5074854;28;20284;-81
2022/06/05 01:13:58;;;;;;;9.57;5.80;;;;;;;-145.69;100.00;70713.97;5074330;28;20209;-81
2022/06/05 01:16:29;;;;;;;9.00;5.20;;;;;;;-145.69;100.00;70706.00;5074523;28;20680;-82
2022/06/05 01:19:10;;;;;;;8.80;5.63;;;;;;;-145.69;100.00;70702.03;5074492;28;20569;-81
2022/06/05 01:22:08;;;;;;;18.17;6.30;;;;;;;-145.69;100.00;70684.13;5074580;28;20295;-80
2022/06/05 01:24:49;;;;;;;15.55;6.20;;;;;;;-145.69;100.00;70690.09;5074668;28;20202;-81
2022/06/05 01:27:23;;;;;;;12.90;6.55;;;;;;;-145.69;100.00;70680.13;5073424;28;20234;-81
2022/06/05 01:29:52;;;;;;;8.90;6.32;;;;;;;-145.69;100.00;70666.22;5074236;28;20230;-85
2022/06/05 01:32:27;;;;;;;11.75;6.22;;;;;;;-145.69;100.00;70674.16;5074142;28;20207;-82
2022/06/05 01:34:57;;;;;;;7.63;5.25;;;;;;;-145.69;100.00;70688.09;5073908;28;20199;-82
2022/06/05 01:37:32;;;;;;;8.00;5.72;;;;;;;-145.69;100.00;70702.03;5074105;28;20226;-81
2022/06/05 01:40:05;;;;;;;10.15;5.55;;;;;;;-145.69;100.00;70686.09;5073457;28;20194;-82
2022/06/05 01:42:36;;;;;;;11.55;6.57;;;;;;;-145.69;100.00;70680.13;5074103;28;20199;-81
2022/06/05 01:45:06;;;;;;;9.48;6.32;;;;;;;-145.69;100.00;70666.22;5073119;28;20210;-81
2022/06/05 01:47:38;;;;;;;9.23;6.10;;;;;;;-145.69;100.00;70664.22;5074337;28;20195;-81
2022/06/05 01:50:16;;;;;;;15.00;6.80;;;;;;;-145.69;100.00;70662.22;5073818;28;20233;-81
2022/06/05 01:52:50;;;;;;;13.07;6.88;;;;;;;-145.69;100.00;70674.16;5072109;28;20209;-81
2022/06/05 01:55:22;;;;;;;15.27;7.53;;;;;;;-145.69;100.00;70676.16;5055036;28;20654;-80
2022/06/05 01:57:55;;;;;;;14.55;7.32;;;;;;;-145.69;100.00;70670.19;5053576;28;20196;-80
2022/06/05 02:00:24;;;;;;;9.88;7.47;;;;;;;-145.69;100.00;70660.25;5053807;28;20210;-81
2022/06/05 02:02:55;;;;;;;12.90;7.78;;;;;;;-145.69;100.00;70630.41;5052921;28;20203;-81
2022/06/05 02:05:26;;;;;;;16.02;8.57;;;;;;;-145.69;100.00;70622.44;5053589;28;20253;-80
2022/06/05 02:07:58;;;;;;;11.45;7.70;;;;;;;-145.69;100.00;70618.47;5065290;28;20199;-81
2022/06/05 02:10:31;;;;;;;13.50;8.30;;;;;;;-145.69;100.00;70600.56;5072903;28;20223;-81
2022/06/05 02:13:01;;;;;;;14.50;8.80;;;;;;;-145.69;100.00;70586.63;5073711;28;20203;-81
2022/06/05 02:15:29;;;;;;;13.75;9.27;;;;;;;-145.69;100.00;70590.63;5073501;28;20911;-82
2022/06/05 02:17:56;;;;;;;17.92;9.75;;;;;;;-145.69;100.00;70622.44;5074061;28;20256;-80
2022/06/05 02:20:23;;;;;;;18.85;10.00;;;;;;;-145.69;100.00;70656.25;5073304;28;20535;-81
2022/06/05 02:22:51;;;;;;;17.80;10.40;;;;;;;-145.69;100.00;70674.16;5072924;28;20206;-81
2022/06/05 02:25:20;;;;;;;20.23;10.00;;;;;;;-145.69;100.00;70686.09;5073356;28;20206;-81
2022/06/05 02:27:47;;;;;;;14.77;10.63;;;;;;;-145.69;100.00;70696.06;5072925;28;20709;-80
2022/06/05 02:30:16;;;;;;;18.23;10.95;;;;;;;-145.69;100.00;70708.00;5072463;28;20232;-81
2022/06/05 02:32:57;;;;;;;16.40;9.95;;;;;;;-145.69;100.00;70725.91;5073080;28;20665;-81
2022/06/05 02:35:34;;;;;;;17.63;10.27;;;;;;;-145.69;100.00;70733.84;5072980;28;20195;-81
2022/06/05 02:38:13;;;;;;;13.85;10.55;;;;;;;-145.69;100.00;70729.88;5073100;28;20198;-82
2022/06/05 02:40:47;;;;;;;21.50;11.15;;;;;;;-145.69;100.00;70743.81;5072836;28;20257;-82
2022/06/05 02:43:20;;;;;;;21.67;13.40;;;;;;;-145.69;100.00;70741.81;5073286;28;20390;-81
2022/06/05 02:45:57;;;;;;;19.30;12.23;;;;;;;-145.69;100.00;70749.78;5073239;28;20252;-82
2022/06/05 02:48:28;;;;;;;31.20;14.15;;;;;;;-145.69;100.00;70755.75;5072508;28;20534;-83
2022/06/05 02:51:01;;;;;;;19.83;11.73;;;;;;;-145.69;100.00;70769.66;5073054;28;20838;-83
2022/06/05 02:53:28;;;;;;;22.40;12.00;;;;;;;-145.69;100.00;70773.66;5073303;28;20202;-82
2022/06/05 02:55:55;;;;;;;26.15;12.73;;;;;;;-145.69;100.00;70777.63;5072706;28;20569;-82
2022/06/05 02:58:21;;;;;;;18.77;12.70;;;;;;;-145.69;100.00;70785.59;5072319;28;20562;-82
2022/06/05 03:03:30;;;;;;;17.42;12.52;;;;;;;-145.69;100.00;70805.47;5072404;28;20202;-82
2022/06/05 03:06:00;;;;;;;19.42;11.82;;;;;;;-145.69;100.00;70809.47;5072829;28;20199;-82
2022/06/05 03:08:27;;;;;;;16.80;11.10;;;;;;;-145.69;100.00;70817.41;5072808;28;20202;-82
2022/06/05 03:10:53;;;;;;;16.00;11.43;;;;;;;-145.69;100.00;70813.44;5076207;28;20230;-82
2022/06/05 03:13:22;;;;;;;19.83;12.23;;;;;;;-145.69;100.00;70805.47;5076728;28;20198;-82
2022/06/05 03:15:50;;;;;;;18.20;12.50;;;;;;;-145.69;100.00;70801.50;5076556;28;20202;-82
2022/06/05 03:18:17;;;;;;;21.60;12.40;;;;;;;-145.69;100.00;70809.47;5076613;28;20232;-82
2022/06/05 03:20:43;;;;;;;19.23;12.70;;;;;;;-145.69;100.00;70815.44;5076950;28;20210;-82
2022/06/05 03:23:11;;;;;;;21.23;12.32;;;;;;;-145.69;100.00;70825.38;5076731;28;20195;-83
2022/06/05 03:25:40;;;;;;;23.70;14.88;;;;;;;-145.69;100.00;70825.38;5076520;28;20199;-82
2022/06/05 03:28:07;;;;;;;18.77;13.00;;;;;;;-145.69;100.00;70839.31;5075869;28;20581;-82
2022/06/05 03:30:37;;;;;;;20.10;12.98;;;;;;;-145.69;100.00;70855.22;5076247;28;20233;-82
2022/06/05 03:33:05;;;;;;;24.55;13.65;;;;;;;-145.69;100.00;70857.22;5076022;28;20211;-82
2022/06/05 03:35:31;;;;;;;21.13;13.65;;;;;;;-145.69;100.00;70861.19;5076708;28;20198;-82
2022/06/05 03:37:58;;;;;;;21.08;13.38;;;;;;;-145.69;100.00;70859.19;5076479;28;20659;-82
2022/06/05 03:40:24;;;;;;;21.83;13.85;;;;;;;-145.69;100.00;70871.13;5075877;28;20205;-82
2022/06/05 03:42:51;;;;;;;19.75;12.60;;;;;;;-145.69;100.00;70873.13;5075779;28;20675;-81
2022/06/05 03:45:18;;;;;;;19.23;13.48;;;;;;;-145.69;100.00;70877.09;5076533;28;20207;-81
2022/06/05 03:47:45;;;;;;;20.98;13.07;;;;;;;-145.69;100.00;70877.09;5076376;28;20202;-80
2022/06/05 03:50:14;;;;;;;19.17;12.75;;;;;;;-145.69;100.00;70865.16;5075746;28;20226;-82
2022/06/05 03:52:41;;;;;;;19.05;12.40;;;;;;;-145.69;100.00;70873.13;5073868;28;20201;-82
2022/06/05 03:55:08;;;;;;;16.15;12.40;;;;;;;-145.69;100.00;70869.16;5076364;28;20654;-82
2022/06/05 03:57:35;;;;;;;17.63;12.45;;;;;;;-145.69;100.00;70861.19;5075973;28;20578;-82
2022/06/05 04:00:01;;;;;;;20.65;13.38;;;;;;;-145.69;100.00;70863.19;5075692;28;20206;-82
2022/06/05 04:02:28;;;;;;;20.20;13.30;;;;;;;-145.69;100.00;70861.19;5076081;28;20203;-82
2022/06/05 04:04:54;;;;;;;17.30;12.27;;;;;;;-145.69;100.00;70869.16;5076121;28;20202;-82
2022/06/05 04:07:23;;;;;;;21.42;14.70;;;;;;;-145.69;100.00;70877.09;5075565;28;20202;-81
2022/06/05 04:09:49;;;;;;;21.80;15.15;;;;;;;-145.69;100.00;70889.03;5075269;28;20817;-81
2022/06/05 04:12:16;;;;;;;23.92;16.55;;;;;;;-145.69;100.00;70902.97;5075784;28;20727;-81
2022/06/05 04:14:42;;;;;;;24.50;16.02;;;;;;;-145.69;100.00;70904.97;5075927;28;20199;-81
2022/06/05 04:17:11;;;;;;;23.25;16.40;;;;;;;-145.69;100.00;70908.94;5075499;28;20202;-82
2022/06/05 04:19:37;;;;;;;28.75;17.05;;;;;;;-145.69;100.00;70916.91;5075626;28;20198;-82
2022/06/05 04:22:04;;;;;;;22.80;16.13;;;;;;;-145.69;100.00;70928.84;5075296;28;20203;-81
2022/06/05 04:24:32;;;;;;;23.98;16.63;;;;;;;-145.69;100.00;70940.78;5075532;28;20197;-82
2022/06/05 04:26:59;;;;;;;26.23;18.77;;;;;;;-145.69;100.00;70960.66;5075357;28;20199;-82
2022/06/05 04:29:25;;;;;;;26.25;18.88;;;;;;;-145.69;100.00;70976.59;5075551;28;20218;-82
2022/06/05 04:31:52;;;;;;;33.60;18.92;;;;;;;-145.69;100.00;70990.50;5075479;28;20248;-81
2022/06/05 04:34:22;;;;;;;25.35;18.60;;;;;;;-145.69;100.00;71016.38;5075006;28;20202;-80
2022/06/05 04:36:49;;;;;;;32.50;19.90;;;;;;;-145.69;100.00;71024.34;5075155;28;20195;-80
2022/06/05 04:39:15;;;;;;;28.60;20.05;;;;;;;-145.69;100.00;71032.28;5074827;28;20203;-81
2022/06/05 04:41:44;;;;;;;37.60;22.02;;;;;;;-145.69;100.00;71042.25;5075421;28;20203;-81
2022/06/05 04:44:14;;;;;;;34.33;22.33;;;;;;;-145.69;100.00;71048.22;5075587;28;20657;-81
2022/06/05 04:46:40;;;;;;;32.67;19.80;;;;;;;-145.69;100.00;71040.25;5076027;28;20561;-81
2022/06/05 04:49:07;;;;;;;25.95;19.35;;;;;;;-145.69;100.00;71052.19;5075168;28;20202;-81
2022/06/05 04:51:34;;;;;;;32.78;19.67;;;;;;;-145.69;100.00;71044.22;5074425;28;20233;-80
2022/06/05 04:54:01;;;;;;;28.67;19.02;;;;;;;-145.69;100.00;71040.25;5075220;28;20199;-81
2022/06/05 04:56:29;;;;;;;30.15;19.65;;;;;;;-145.69;100.00;71034.28;5075063;28;20229;-78
2022/06/05 04:58:57;;;;;;;32.63;19.90;;;;;;;-145.69;100.00;71044.22;5075244;28;20225;-78
2022/06/05 05:01:25;;;;;;;33.22;20.50;;;;;;;-145.69;100.00;71076.06;5075089;28;20199;-77
2022/06/05 05:03:53;;;;;;;34.17;21.65;;;;;;;-145.69;100.00;71117.84;5074684;28;20280;-76
2022/06/05 05:06:20;;;;;;;34.60;19.17;;;;;;;-145.69;100.00;71163.63;5074835;28;20213;-75
2022/06/05 05:08:47;;;;;;;44.42;19.48;;;;;;;-145.69;100.00;71139.75;5074849;28;20194;-74
2022/06/05 05:11:14;;;;;;;35.63;19.35;;;;;;;-145.69;100.00;71097.97;5074624;28;20222;-75
2022/06/05 05:13:41;;;;;;;27.95;18.42;;;;;;;-145.69;100.00;71084.03;5074256;28;20199;-75
2022/06/05 05:16:09;;;;;;;31.13;19.02;;;;;;;-145.69;100.00;71095.97;5074418;28;20199;-74
2022/06/05 05:18:36;;;;;;;29.05;15.15;;;;;;;-145.69;100.00;71072.09;5054384;28;20669;-73
2022/06/05 05:21:07;;;;;;;12.82;8.02;;;;;;;-145.69;100.00;71054.19;5054274;28;20712;-75
2022/06/05 05:23:34;;;;;;;9.38;5.78;;;;;;;-145.69;100.00;71072.09;5054333;28;20318;-74
2022/06/05 05:26:09;;;;;;;4.88;2.90;;;;;;;-145.69;100.00;71084.03;5054436;28;20214;-74
2022/06/05 05:28:36;;;;;;;7.13;2.40;;;;;;;-145.69;100.00;71072.09;5054253;28;20239;-75
2022/06/05 05:31:03;;;;;;;5.47;2.35;;;;;;;-145.69;100.00;71058.16;5061095;28;20753;-75
2022/06/05 05:33:30;;;;;;;4.90;2.00;;;;;;;-145.69;100.00;71050.22;5073248;28;20202;-75
2022/06/05 05:35:57;;;;;;;2.72;2.00;;;;;;;-145.69;100.00;71050.22;5074201;28;20203;-75
2022/06/05 05:38:23;;;;;;;4.43;2.10;;;;;;;-145.69;100.00;71046.22;5073835;28;20199;-75
2022/06/05 05:43:34;;;;;;;9.38;3.20;;;;;;;-145.69;100.00;70996.47;5073385;28;20465;-76
2022/06/05 05:46:00;;;;;;;4.25;2.10;;;;;;;-145.69;100.00;70984.53;5073675;28;20222;-75
2022/06/05 05:48:27;;;;;;;5.22;2.38;;;;;;;-145.69;100.00;70984.53;5074003;28;20209;-76
2022/06/05 05:50:55;;;;;;;2.63;2.00;;;;;;;-145.69;100.00;70962.66;5073773;28;20199;-76
2022/06/05 05:53:21;;;;;;;6.05;2.00;;;;;;;-145.69;100.00;70946.75;5059527;28;20198;-73
2022/06/05 05:55:47;;;;;;;3.88;1.83;;;;;;;-145.69;100.00;70924.84;5054046;28;20226;-77
2022/06/05 05:58:14;;;;;;;6.93;1.80;;;;;;;-145.69;100.00;70922.88;5055325;28;20206;-76
2022/06/05 06:00:40;;;;;;;7.30;1.85;;;;;;;-145.69;100.00;70885.06;5073391;28;20202;-75
2022/06/05 06:03:07;;;;;;;4.80;1.60;;;;;;;-145.69;100.00;70940.78;5073794;28;20206;-75
2022/06/05 06:05:34;;;;;;;6.15;1.30;;;;;;;-145.69;100.00;70938.78;5073585;28;20203;-76
2022/06/05 06:08:02;;;;;;;8.40;1.40;;;;;;;-145.69;100.00;70920.88;5073637;28;20237;-75
2022/06/05 06:10:28;;;;;;;2.72;1.15;;;;;;;-145.69;100.00;70922.88;5073430;28;20211;-76
2022/06/05 06:12:54;;;;;;;2.92;1.02;;;;;;;-145.69;100.00;70920.88;5072718;28;20233;-76
2022/06/05 06:15:21;;;;;;;3.55;1.23;;;;;;;-145.69;100.00;70954.69;5073648;28;20199;-75
2022/06/05 06:17:47;;;;;;;3.85;1.70;;;;;;;-145.69;100.00;70938.78;5072883;28;20434;-76
2022/06/05 06:20:14;;;;;;;2.83;1.50;;;;;;;-145.69;100.00;70998.47;5073485;28;20203;-77
2022/06/05 06:22:41;;;;;;;5.70;1.95;;;;;;;-145.69;100.00;70982.56;5073242;28;20195;-76
2022/06/05 06:25:11;;;;;;;5.00;2.03;;;;;;;-145.69;100.00;70974.59;5073318;28;20241;-77
2022/06/05 06:27:38;;;;;;;4.13;1.90;;;;;;;-145.69;100.00;70988.53;5072608;28;20268;-77
2022/06/05 06:30:05;;;;;;;2.47;1.85;;;;;;;-145.69;100.00;70992.50;5073277;28;20565;-77
2022/06/05 06:32:32;;;;;;;3.33;1.83;;;;;;;-145.69;100.00;71000.47;5073146;28;20562;-76
2022/06/05 06:34:58;;;;;;;6.13;2.15;;;;;;;-145.69;100.00;71016.38;5073112;28;20653;-77
2022/06/05 06:37:25;;;;;;;6.45;2.25;;;;;;;-145.69;100.00;71012.41;5072698;28;20194;-78
2022/06/05 06:39:51;;;;;;;5.72;3.22;;;;;;;-145.69;100.00;71016.38;5073026;28;20199;-77
2022/06/05 06:42:19;;;;;;;7.70;2.95;;;;;;;-145.69;100.00;71024.34;5072988;28;20604;-77
2022/06/05 06:44:45;;;;;;;4.55;2.42;;;;;;;-145.69;100.00;71026.31;5072229;28;20195;-77
2022/06/05 06:47:12;;;;;;;7.78;2.45;;;;;;;-145.69;100.00;71024.34;5073124;28;20601;-78
2022/06/05 06:49:38;;;;;;;4.78;2.45;;;;;;;-145.69;100.00;71008.41;5073202;28;20206;-78
2022/06/05 06:52:05;;;;;;;6.35;2.53;;;;;;;-145.69;100.00;70996.47;5072965;28;20230;-78
2022/06/05 06:54:32;;;;;;;6.75;2.70;;;;;;;-145.69;100.00;70978.56;5072580;28;20202;-77
2022/06/05 06:56:58;;;;;;;7.15;3.33;;;;;;;-145.69;100.00;70970.63;5072426;28;20256;-76
2022/06/05 06:59:27;;;;;;;5.45;2.67;;;;;;;-145.69;100.00;70960.66;5072867;28;20210;-78
2022/06/05 07:01:54;;;;;;;5.20;2.83;;;;;;;-145.69;100.00;70940.78;5073129;28;20198;-77
2022/06/05 07:04:21;;;;;;;4.88;2.10;;;;;;;-145.69;100.00;70942.75;5073020;28;20202;-78
2022/06/05 07:06:48;;;;;;;8.32;2.50;;;;;;;-145.69;100.00;70910.94;5072874;28;20704;-78
2022/06/05 07:09:15;;;;;;;3.60;2.60;;;;;;;-145.69;100.00;70869.16;5072546;28;20198;-78
2022/06/05 07:11:41;;;;;;;6.28;2.35;;;;;;;-145.69;100.00;70837.31;5072898;28;20229;-79
2022/06/05 07:14:09;;;;;;;3.00;2.13;;;;;;;-145.69;100.00;70771.66;5072841;28;20210;-79
2022/06/05 07:16:36;;;;;;;3.97;2.30;;;;;;;-145.69;100.00;70727.88;5072842;28;20624;-79
2022/06/05 07:19:04;;;;;;;2.80;2.00;;;;;;;-145.69;100.00;70662.22;5072365;28;20248;-79
2022/06/05 07:21:30;;;;;;;2.60;1.50;;;;;;;-145.69;100.00;70630.41;5072450;28;20229;-79
2022/06/05 07:23:59;;;;;;;3.55;1.55;;;;;;;-145.69;100.00;70616.47;5072332;28;20221;-79
2022/06/05 07:26:27;;;;;;;2.88;1.40;;;;;;;-145.69;100.00;70630.41;5072925;28;20205;-79
2022/06/05 07:28:56;;;;;;;4.45;1.50;;;;;;;-145.69;100.00;70590.63;5071416;28;20841;-79
2022/06/05 07:31:24;;;;;;;2.85;1.30;;;;;;;-145.69;100.00;70554.81;5072422;28;20246;-79
2022/06/05 07:33:51;;;;;;;2.05;1.40;;;;;;;-145.69;100.00;70538.88;5072188;28;20291;-80
2022/06/05 07:36:20;;;;;;;2.63;1.33;;;;;;;-145.69;100.00;70463.28;5072081;28;20237;-80
2022/06/05 07:38:47;;;;;;;1.60;1.25;;;;;;;-145.69;100.00;70483.19;5072351;28;20199;-79
2022/06/05 07:41:29;;;;;;;3.53;1.20;;;;;;;-145.69;100.00;70431.47;5072391;28;20202;-80
2022/06/05 07:43:56;;;;;;;5.25;1.40;;;;;;;-145.69;100.00;70433.44;5072633;28;20198;-80
2022/06/05 07:46:23;;;;;;;5.22;1.58;;;;;;;-145.69;100.00;70435.44;5072140;28;20285;-80
2022/06/05 07:48:51;;;;;;;2.95;1.20;;;;;;;-145.69;100.00;70411.56;5072345;28;20203;-80
2022/06/05 07:56:48;;;;;;;2.83;1.20;;;;;;;-145.69;100.00;70481.19;5055626;28;20202;-79
2022/06/05 07:59:15;;;;;;;4.68;1.50;;;;;;;-145.69;100.00;70405.59;5055871;28;20207;-79
2022/06/05 08:01:41;;;;;;;3.30;1.45;;;;;;;-145.69;100.00;70373.78;5056222;28;20203;-79
2022/06/05 08:04:09;;;;;;;3.47;1.30;;;;;;;-145.69;100.00;70369.78;5063843;28;20441;-78
2022/06/05 08:06:36;;;;;;;4.15;1.27;;;;;;;-145.69;100.00;70341.94;5075836;28;20226;-78
2022/06/05 08:09:03;;;;;;;5.13;1.35;;;;;;;-145.69;100.00;70387.69;5076014;28;20203;-78
2022/06/05 08:11:30;;;;;;;4.03;1.58;;;;;;;-145.69;100.00;70425.50;5075422;28;20210;-78
2022/06/05 08:13:56;;;;;;;4.63;1.13;;;;;;;-145.69;100.00;70439.41;5075791;28;20210;-78
2022/06/05 08:16:23;;;;;;;4.07;1.38;;;;;;;-145.69;100.00;70425.50;5075886;28;20569;-77
2022/06/05 08:18:51;;;;;;;3.88;1.67;;;;;;;-145.69;100.00;70463.28;5075505;28;20249;-78
2022/06/05 08:21:19;;;;;;;2.78;1.50;;;;;;;-145.69;100.00;70461.31;5075646;28;20217;-77
2022/06/05 08:23:46;;;;;;;7.72;1.50;;;;;;;-145.69;100.00;70437.44;5075343;28;20677;-77
2022/06/05 08:26:13;;;;;;;5.50;1.90;;;;;;;-145.69;100.00;70373.78;5075576;28;20199;-78
2022/06/05 08:28:40;;;;;;;5.60;1.40;;;;;;;-145.69;100.00;70345.91;5074986;28;20281;-77
2022/06/05 08:31:07;;;;;;;4.18;1.40;;;;;;;-145.69;100.00;70292.19;5075380;28;20203;-77
2022/06/05 08:33:34;;;;;;;6.15;1.70;;;;;;;-145.69;100.00;70316.06;5075485;28;20230;-77
2022/06/05 08:36:01;;;;;;;3.28;1.48;;;;;;;-145.69;100.00;70355.88;5075384;28;20252;-77
2022/06/05 08:41:28;;;;;;;3.20;1.25;;;;;;;-145.69;100.00;70322.03;5074724;28;20260;-78
2022/06/05 08:44:09;;;;;;;6.45;1.50;;;;;;;-145.69;98.03;70343.94;5075304;28;20572;-78
2022/06/05 08:46:41;;;;;;;6.05;1.65;;;;;;;-145.69;100.00;70387.69;5074437;28;20198;-78
2022/06/05 08:49:11;;;;;;;3.33;1.63;;;;;;;-145.69;99.73;70367.81;5074775;28;20195;-77
2022/06/05 08:51:46;;;;;;;6.70;2.05;;;;;;;-145.69;100.00;70351.88;5075248;28;20203;-79
2022/06/05 08:54:20;;;;;;;2.72;1.33;;;;;;;-145.69;100.00;70280.28;5074883;28;20198;-78
2022/06/05 08:56:49;;;;;;;4.00;1.50;;;;;;;-145.69;100.00;70282.25;5075141;28;20195;-77
2022/06/05 08:59:25;;;;;;;5.22;1.83;;;;;;;-145.69;97.03;70280.28;5074643;28;20286;-78
2022/06/05 09:01:58;;;;;;;5.70;1.95;;;;;;;-145.69;97.90;70234.50;5074538;28;20195;-77
2022/06/05 09:04:36;;;;;;;2.85;1.65;;;;;;;-145.69;100.00;70218.59;5074962;28;20207;-77
2022/06/05 09:07:07;;;;;;;4.20;1.73;;;;;;;-145.69;97.06;70194.72;5073342;28;20251;-76
2022/06/05 09:09:42;;;;;;;3.53;1.73;;;;;;;-145.69;100.00;70250.44;5074828;28;20592;-77
2022/06/05 09:12:15;;;;;;;6.20;2.22;;;;;;;-145.69;97.54;70264.34;5073769;28;20932;-77
2022/06/05 09:14:50;;;;;;;6.88;2.10;;;;;;;-145.69;100.00;70276.28;5074359;28;20195;-78
2022/06/05 09:17:20;;;;;;;6.35;2.13;;;;;;;-145.69;98.21;70322.03;5074447;28;20622;-78
2022/06/05 09:19:50;;;;;;;5.53;2.35;;;;;;;-145.69;100.00;70419.53;5074371;28;20661;-78
2022/06/05 09:22:19;;;;;;;7.22;3.05;;;;;;;-145.69;100.00;70520.97;5074466;28;20210;-78
2022/06/05 09:25:06;;;;;;;4.22;2.80;;;;;;;-145.69;100.00;70584.66;5074281;28;20696;-78
2022/06/05 09:27:46;;;;;;;6.60;3.05;;;;;;;-145.69;100.00;70638.34;5073298;28;20222;-79
2022/06/05 09:30:20;;;;;;;7.57;3.20;;;;;;;-145.69;100.00;70654.28;5074376;28;20248;-79
2022/06/05 09:33:00;;;;;;;5.88;3.15;;;;;;;-145.69;100.00;70680.13;5074015;28;20688;-80
2022/06/05 09:35:32;;;;;;;7.88;3.33;;;;;;;-145.69;100.00;70715.94;5073590;28;20677;-79
2022/06/05 09:38:03;;;;;;;9.00;3.75;;;;;;;-145.69;100.00;70727.88;5073713;28;20442;-78
2022/06/05 09:40:34;;;;;;;8.48;4.28;;;;;;;-145.69;100.00;70737.84;5073555;28;20206;-79
2022/06/05 09:43:40;;;;;;;8.40;4.30;;;;;;;-145.69;100.00;70737.84;5073346;28;20220;-77
2022/06/05 09:46:20;;;;;;;9.20;4.50;;;;;;;-145.69;100.00;70761.72;5073655;28;20438;-79
2022/06/05 09:48:52;;;;;;;7.22;4.10;;;;;;;-145.69;100.00;70769.66;5074239;28;20202;-80
2022/06/05 09:51:20;;;;;;;7.20;3.85;;;;;;;-145.69;100.00;70769.66;5073871;28;20203;-80
2022/06/05 09:53:54;;;;;;;5.95;3.70;;;;;;;-145.69;100.00;70777.63;5073703;28;20222;-80
2022/06/05 09:56:34;;;;;;;8.13;2.88;;;;;;;-145.69;100.00;70793.53;5073620;28;20525;-79
2022/06/05 09:59:18;;;;;;;6.93;3.40;;;;;;;-145.69;100.00;70805.47;5067091;28;20578;-79
2022/06/05 10:01:51;;;;;;;5.65;3.60;;;;;;;-145.69;100.00;70807.47;5068780;28;20758;-78
2022/06/05 10:04:21;;;;;;;9.25;3.30;;;;;;;-145.69;100.00;70815.44;5073713;28;20234;-79
2022/06/05 10:06:51;;;;;;;4.85;2.22;;;;;;;-145.69;100.00;70829.34;5073860;28;20245;-79
2022/06/05 10:09:22;;;;;;;7.90;2.92;;;;;;;-145.69;100.00;70843.28;5073562;28;20285;-78
2022/06/05 10:11:57;;;;;;;6.72;3.63;;;;;;;-145.69;100.00;70845.28;5072829;28;20207;-77
2022/06/05 10:14:41;;;;;;;5.43;3.55;;;;;;;-145.69;100.00;70861.19;5073411;28;20230;-76
2022/06/05 10:17:23;;;;;;;5.60;3.38;;;;;;;-145.69;100.00;70869.16;5073440;28;20430;-77
2022/06/05 10:20:07;;;;;;;6.70;2.75;;;;;;;-145.69;100.00;70877.09;5073049;28;20202;-76
2022/06/05 10:22:46;;;;;;;7.60;2.13;;;;;;;-145.69;100.00;70877.09;5073117;28;20203;-77
2022/06/05 10:25:27;;;;;;;5.82;2.47;;;;;;;-145.69;100.00;70869.16;5073064;28;20813;-75
2022/06/05 10:27:58;;;;;;;8.55;3.25;;;;;;;-145.69;100.00;70865.16;5072857;28;20258;-76
2022/06/05 10:30:31;;;;;;;6.60;3.15;;;;;;;-145.69;100.00;70845.28;5073211;28;20286;-76
2022/06/05 10:33:02;;;;;;;4.97;3.30;;;;;;;-145.69;100.00;70833.34;5073173;28;20589;-76
2022/06/05 10:35:47;;;;;;;7.03;3.45;;;;;;;-145.69;100.00;70821.41;5072571;28;20662;-76
2022/06/05 10:38:30;;;;;;;12.38;3.45;;;;;;;-145.69;100.00;70795.53;5072811;28;20678;-76
2022/06/05 10:41:07;;;;;;;11.57;3.55;;;;;;;-145.69;100.00;70765.69;5073112;28;20560;-76
2022/06/05 10:43:40;;;;;;;8.40;2.83;;;;;;;-145.69;100.00;70706.00;5072454;28;20198;-77
2022/06/05 10:46:18;;;;;;;9.00;3.53;;;;;;;-145.69;100.00;70626.41;5072549;28;20201;-77
2022/06/05 10:48:51;;;;;;;5.53;2.60;;;;;;;-145.69;100.00;70582.66;5071553;28;20195;-77
2022/06/05 10:51:28;;;;;;;7.47;2.20;;;;;;;-145.69;100.00;70505.06;5072929;28;20194;-77
2022/06/05 10:54:06;;;;;;;8.48;2.45;;;;;;;-145.69;100.00;70495.13;5069866;28;20218;-78
2022/06/05 10:56:42;;;;;;;4.25;1.92;;;;;;;-145.69;100.00;70427.47;5069447;28;20187;-78
2022/06/05 10:59:16;;;;;;;7.10;2.05;;;;;;;-145.69;100.00;70365.81;5072615;28;20292;-78
2022/06/05 11:01:51;;;;;;;6.05;1.95;;;;;;;-145.69;100.00;70363.81;5056021;28;20210;-77
2022/06/05 11:04:33;;;;;;;5.85;2.30;;;;;;;-145.69;100.00;70328.00;5054272;28;20205;-77
2022/06/05 11:07:14;;;;;;;5.00;1.83;;;;;;;-145.69;100.00;70417.53;5050813;28;20211;-78
2022/06/05 11:09:47;;;;;;;7.32;1.70;;;;;;;-145.69;100.00;70530.94;5061596;28;20194;-79
2022/06/05 11:15:17;;;;;;;4.95;1.90;;;;;;;-145.69;100.00;70455.34;5037718;28;20209;-81
2022/06/05 11:17:55;;;;;;;4.95;2.00;;;;;;;-145.69;100.00;70459.31;5056965;28;20252;-80
2022/06/05 11:20:24;;;;;;;2.63;1.60;;;;;;;-145.69;100.00;70387.69;5070126;28;20245;-80
2022/06/05 11:23:02;;;;;;;3.80;1.60;;;;;;;-145.69;99.01;70343.94;5063701;28;20230;-81
2022/06/05 11:25:32;;;;;;;5.82;1.80;;;;;;;-145.69;100.00;70290.22;5076320;28;20227;-82
2022/06/05 11:28:26;;;;;;;5.90;1.67;;;;;;;-145.69;100.00;70282.25;5058873;28;20227;-82
2022/06/05 11:31:10;;;;;;;2.20;1.25;;;;;;;-145.69;99.01;70216.63;5067655;28;20206;-82
2022/06/05 11:33:47;;;;;;;6.50;1.98;;;;;;;-145.69;100.00;70314.09;5058273;28;20231;-81
2022/06/05 11:36:19;;;;;;;5.80;1.80;;;;;;;-145.69;100.00;70355.88;5080929;28;20233;-81